createdAt,value
2022-12-28T00:02:14.481Z,1.75
2022-12-28T00:04:42.425Z,1.30
2022-12-28T00:07:10.435Z,1.58
2022-12-28T00:09:38.337Z,1.50
2022-12-28T00:12:06.443Z,1.50
2022-12-28T00:14:34.348Z,1.20
2022-12-28T00:17:02.221Z,1.50
2022-12-28T00:19:30.461Z,1.13
2022-12-28T00:21:58.282Z,1.50
2022-12-28T00:24:26.370Z,2.20
2022-12-28T00:26:56.709Z,1.33
2022-12-28T00:29:24.866Z,1.30
2022-12-28T00:31:52.826Z,1.10
2022-12-28T00:34:25.312Z,1.83
2022-12-28T00:37:10.533Z,1.40
2022-12-28T00:39:43.970Z,1.48
2022-12-28T00:42:16.002Z,1.33
2022-12-28T00:44:43.915Z,1.85
2022-12-28T00:47:11.767Z,1.25
2022-12-28T00:49:40.455Z,1.48
2022-12-28T00:52:08.428Z,1.40
2022-12-28T00:54:36.282Z,1.40
2022-12-28T00:57:04.211Z,1.70
2022-12-28T00:59:32.455Z,1.48
2022-12-28T01:02:00.964Z,1.42
2022-12-28T01:04:28.995Z,1.40
2022-12-28T01:06:56.844Z,1.60
2022-12-28T01:09:24.723Z,1.30
2022-12-28T01:11:52.764Z,1.60
2022-12-28T01:14:20.662Z,1.42
2022-12-28T01:16:48.566Z,1.40
2022-12-28T01:19:21.387Z,1.95
2022-12-28T01:21:50.582Z,1.63
2022-12-28T01:24:18.840Z,1.83
2022-12-28T01:26:46.726Z,1.33
2022-12-28T01:29:14.569Z,1.38
2022-12-28T01:31:42.509Z,1.63
2022-12-28T01:34:11.424Z,1.55
2022-12-28T01:36:39.300Z,1.20
2022-12-28T01:39:07.511Z,1.63
2022-12-28T01:41:39.876Z,1.65
2022-12-28T01:44:07.812Z,1.63
2022-12-28T01:46:50.027Z,1.67
2022-12-28T01:49:46.817Z,1.38
2022-12-28T01:52:26.380Z,1.20
2022-12-28T01:55:10.934Z,1.55
2022-12-28T01:58:08.464Z,1.50
2022-12-28T02:00:36.959Z,1.60
2022-12-28T02:03:16.279Z,1.05
2022-12-28T02:05:49.683Z,1.80
2022-12-28T02:08:37.130Z,1.05
2022-12-28T02:11:05.969Z,1.50
2022-12-28T02:13:34.134Z,1.25
2022-12-28T02:16:04.749Z,1.42
2022-12-28T02:18:33.342Z,1.60
2022-12-28T02:21:19.493Z,1.58
2022-12-28T02:24:14.671Z,1.58
2022-12-28T02:26:51.270Z,1.58
2022-12-28T02:29:55.937Z,1.55
2022-12-28T02:32:26.734Z,1.40
2022-12-28T02:35:40.581Z,1.95
2022-12-28T02:38:30.793Z,2.28
2022-12-28T02:41:13.060Z,1.88
2022-12-28T02:43:41.233Z,1.60
2022-12-28T02:46:48.434Z,1.13
2022-12-28T02:49:43.877Z,1.50
2022-12-28T02:52:20.529Z,2.00
2022-12-28T02:55:30.567Z,1.30
2022-12-28T02:58:33.145Z,1.73
2022-12-28T03:01:15.568Z,1.60
2022-12-28T03:03:57.586Z,1.33
2022-12-28T03:07:01.314Z,1.00
2022-12-28T03:09:36.294Z,1.38
2022-12-28T03:12:27.635Z,1.05
2022-12-28T03:15:03.905Z,1.17
2022-12-28T03:17:53.098Z,1.75
2022-12-28T03:20:49.161Z,1.95
2022-12-28T03:23:37.184Z,1.67
2022-12-28T03:26:27.129Z,1.40
2022-12-28T03:29:14.604Z,1.92
2022-12-28T03:31:45.546Z,1.42
2022-12-28T03:34:16.488Z,1.00
2022-12-28T03:37:02.977Z,1.70
2022-12-28T03:40:00.472Z,1.33
2022-12-28T03:42:57.837Z,1.30
2022-12-28T03:45:45.055Z,1.33
2022-12-28T03:48:16.912Z,1.40
2022-12-28T03:50:48.323Z,1.30
2022-12-28T03:53:19.769Z,0.90
2022-12-28T03:55:49.134Z,1.52
2022-12-28T03:58:21.010Z,1.33
2022-12-28T04:00:48.889Z,1.30
2022-12-28T04:03:17.157Z,1.70
2022-12-28T04:05:46.218Z,1.55
2022-12-28T04:08:14.113Z,1.25
2022-12-28T04:10:42.029Z,1.13
2022-12-28T04:13:10.471Z,1.50
2022-12-28T04:16:05.863Z,1.88
2022-12-28T04:18:35.897Z,1.55
2022-12-28T04:21:04.069Z,1.75
2022-12-28T04:23:32.696Z,1.80
2022-12-28T04:26:33.083Z,1.92
2022-12-28T04:29:02.422Z,2.03
2022-12-28T04:31:56.438Z,1.70
2022-12-28T04:34:24.674Z,1.17
2022-12-28T04:37:00.770Z,2.15
2022-12-28T04:39:28.771Z,2.33
2022-12-28T04:42:16.645Z,1.40
2022-12-28T04:44:44.595Z,1.95
2022-12-28T04:47:13.296Z,1.88
2022-12-28T04:49:41.136Z,1.35
2022-12-28T04:52:09.002Z,1.70
2022-12-28T04:54:36.904Z,2.10
2022-12-28T04:57:04.820Z,2.33
2022-12-28T04:59:32.675Z,1.77
2022-12-28T05:02:00.858Z,2.45
2022-12-28T05:04:29.020Z,1.83
2022-12-28T05:06:56.876Z,1.67
2022-12-28T05:09:24.821Z,2.28
2022-12-28T05:11:52.837Z,1.80
2022-12-28T05:14:20.690Z,1.67
2022-12-28T05:16:51.539Z,2.25
2022-12-28T05:19:19.434Z,2.78
2022-12-28T05:21:47.359Z,2.05
2022-12-28T05:24:15.196Z,2.15
2022-12-28T05:26:43.113Z,2.35
2022-12-28T05:29:10.923Z,2.78
2022-12-28T05:31:38.778Z,2.20
2022-12-28T05:34:06.740Z,1.65
2022-12-28T05:36:37.853Z,2.20
2022-12-28T05:39:06.060Z,2.00
2022-12-28T05:41:33.904Z,2.50
2022-12-28T05:44:01.797Z,1.65
2022-12-28T05:46:32.692Z,2.78
2022-12-28T05:49:01.014Z,2.53
2022-12-28T05:51:33.922Z,1.98
2022-12-28T05:54:05.772Z,2.25
2022-12-28T05:56:34.132Z,1.80
2022-12-28T05:59:03.924Z,2.55
2022-12-28T06:01:35.532Z,2.70
2022-12-28T06:04:17.910Z,2.75
2022-12-28T06:06:47.695Z,2.28
2022-12-28T06:09:15.799Z,1.88
2022-12-28T06:11:43.786Z,2.30
2022-12-28T06:14:11.737Z,1.98
2022-12-28T06:16:42.143Z,1.90
2022-12-28T06:19:12.405Z,2.65
2022-12-28T06:21:40.969Z,1.80
2022-12-28T06:24:09.849Z,2.28
2022-12-28T06:26:38.761Z,2.10
2022-12-28T06:29:06.863Z,2.10
2022-12-28T06:31:36.853Z,2.25
2022-12-28T06:34:07.955Z,1.35
2022-12-28T06:36:44.457Z,2.03
2022-12-28T06:39:14.267Z,2.63
2022-12-28T06:41:42.827Z,2.60
2022-12-28T06:44:12.738Z,2.70
2022-12-28T06:46:40.927Z,2.50
2022-12-28T06:49:08.752Z,2.80
2022-12-28T06:51:42.054Z,3.00
2022-12-28T06:54:11.027Z,2.55
2022-12-28T06:56:39.160Z,2.65
2022-12-28T06:59:07.479Z,2.65
2022-12-28T07:01:38.049Z,2.75
2022-12-28T07:04:08.463Z,2.67
2022-12-28T07:06:39.123Z,3.00
2022-12-28T07:09:11.119Z,2.85
2022-12-28T07:11:39.145Z,2.30
2022-12-28T07:14:07.095Z,3.33
2022-12-28T07:19:02.136Z,3.35
2022-12-28T07:21:36.404Z,3.47
2022-12-28T07:24:04.935Z,2.95
2022-12-28T07:26:35.580Z,3.60
2022-12-28T07:29:05.538Z,3.70
2022-12-28T07:31:43.705Z,2.88
2022-12-28T07:34:14.168Z,2.13
2022-12-28T07:36:42.344Z,3.13
2022-12-28T07:39:10.423Z,2.80
2022-12-28T07:41:38.745Z,2.78
2022-12-28T07:44:07.304Z,3.63
2022-12-28T07:46:36.524Z,2.47
2022-12-28T07:49:04.889Z,3.13
2022-12-28T07:51:34.869Z,2.05
2022-12-28T07:54:03.423Z,3.00
2022-12-28T07:59:01.467Z,1.48
2022-12-28T08:01:32.216Z,3.08
2022-12-28T08:04:02.345Z,3.42
2022-12-28T08:06:34.532Z,3.15
2022-12-28T08:09:03.402Z,2.97
2022-12-28T08:11:34.812Z,3.22
2022-12-28T08:14:03.518Z,3.17
2022-12-28T08:16:34.371Z,3.22
2022-12-28T08:19:02.555Z,3.30
2022-12-28T08:21:32.951Z,3.42
2022-12-28T08:24:01.380Z,3.13
2022-12-28T08:26:32.104Z,3.78
2022-12-28T08:29:02.542Z,2.83
2022-12-28T08:31:33.476Z,3.15
2022-12-28T08:34:03.006Z,3.00
2022-12-28T08:36:31.483Z,3.35
2022-12-28T08:39:00.173Z,3.88
2022-12-28T08:41:29.495Z,2.85
2022-12-28T08:43:57.555Z,4.18
2022-12-28T08:46:27.688Z,3.05
2022-12-28T08:48:56.859Z,3.05
2022-12-28T08:51:41.292Z,3.47
2022-12-28T08:54:11.146Z,3.05
2022-12-28T08:56:40.265Z,3.75
2022-12-28T08:59:08.590Z,3.10
2022-12-28T09:01:43.638Z,2.83
2022-12-28T09:04:19.181Z,3.08
2022-12-28T09:06:47.767Z,3.17
2022-12-28T09:09:17.756Z,3.20
2022-12-28T09:11:47.942Z,3.05
2022-12-28T09:14:23.076Z,3.38
2022-12-28T09:16:53.334Z,3.67
2022-12-28T09:19:21.589Z,2.92
2022-12-28T09:21:52.265Z,3.85
2022-12-28T09:24:20.399Z,4.25
2022-12-28T09:26:48.721Z,3.85
2022-12-28T09:29:16.622Z,3.42
2022-12-28T09:31:44.642Z,4.10
2022-12-28T09:37:01.585Z,3.83
2022-12-28T09:39:29.695Z,4.30
2022-12-28T09:42:26.950Z,4.05
2022-12-28T09:45:04.910Z,4.53
2022-12-28T09:47:45.841Z,4.38
2022-12-28T09:50:16.922Z,5.25
2022-12-28T09:53:29.458Z,5.60
2022-12-28T09:56:48.454Z,3.72
2022-12-28T09:59:20.965Z,3.90
2022-12-28T10:01:57.937Z,3.88
2022-12-28T10:04:26.016Z,4.35
2022-12-28T10:06:53.915Z,3.10
2022-12-28T10:09:26.028Z,3.70
2022-12-28T10:11:54.155Z,3.67
2022-12-28T10:14:34.458Z,4.95
2022-12-28T10:17:03.157Z,3.42
2022-12-28T10:19:31.050Z,4.43
2022-12-28T10:22:04.469Z,3.55
2022-12-28T10:24:33.048Z,3.60
2022-12-28T10:27:04.026Z,5.07
2022-12-28T10:29:33.034Z,4.10
2022-12-28T10:32:01.895Z,4.28
2022-12-28T10:34:34.880Z,5.00
2022-12-28T10:37:21.533Z,4.13
2022-12-28T10:39:55.243Z,4.05
2022-12-28T10:42:39.936Z,4.28
2022-12-28T10:45:19.430Z,3.40
2022-12-28T10:47:51.419Z,4.63
2022-12-28T10:50:56.764Z,4.65
2022-12-28T10:53:44.321Z,4.78
2022-12-28T10:56:20.517Z,4.97
2022-12-28T10:58:50.789Z,4.55
2022-12-28T11:01:25.387Z,4.05
2022-12-28T11:03:56.492Z,3.83
2022-12-28T11:06:36.627Z,4.00
2022-12-28T11:09:16.533Z,4.55
2022-12-28T11:11:46.328Z,4.72
2022-12-28T11:14:34.164Z,4.30
2022-12-28T11:17:27.780Z,3.33
2022-12-28T11:20:07.088Z,3.17
2022-12-28T11:22:35.189Z,4.30
2022-12-28T11:25:03.555Z,4.32
2022-12-28T11:27:31.398Z,3.17
2022-12-28T11:29:59.270Z,3.50
2022-12-28T11:32:32.760Z,3.17
2022-12-28T11:35:01.181Z,3.35
2022-12-28T11:37:29.075Z,4.10
2022-12-28T11:39:58.726Z,3.83
2022-12-28T11:42:40.979Z,2.72
2022-12-28T11:45:17.198Z,3.25
2022-12-28T11:47:45.695Z,2.60
2022-12-28T11:50:42.127Z,3.88
2022-12-28T11:53:46.045Z,3.78
2022-12-28T11:56:20.038Z,2.92
2022-12-28T11:59:04.595Z,3.80
2022-12-28T12:01:34.756Z,4.00
2022-12-28T12:04:05.423Z,3.88
2022-12-28T12:06:43.017Z,3.97
2022-12-28T12:09:25.900Z,4.05
2022-12-28T12:11:55.783Z,4.90
2022-12-28T12:14:40.450Z,4.82
2022-12-28T12:17:25.880Z,4.82
2022-12-28T12:20:00.795Z,5.00
2022-12-28T12:22:47.309Z,4.65
2022-12-28T12:25:41.161Z,4.93
2022-12-28T12:28:29.654Z,5.03
2022-12-28T12:30:57.935Z,4.80
2022-12-28T12:33:28.193Z,4.82
2022-12-28T12:36:10.959Z,4.65
2022-12-28T12:38:43.135Z,4.60
2022-12-28T12:41:23.204Z,4.10
2022-12-28T12:44:06.269Z,4.47
2022-12-28T12:46:51.630Z,4.83
2022-12-28T12:49:19.500Z,4.82
2022-12-28T12:51:50.405Z,4.07
2022-12-28T12:54:42.420Z,4.97
2022-12-28T12:57:34.373Z,4.82
2022-12-28T13:00:22.404Z,4.10
2022-12-28T13:03:34.202Z,4.57
2022-12-28T13:06:06.096Z,4.00
2022-12-28T13:08:40.201Z,3.83
2022-12-28T13:11:12.950Z,3.95
2022-12-28T13:13:43.306Z,3.80
2022-12-28T13:16:16.311Z,3.78
2022-12-28T13:19:04.352Z,3.67
2022-12-28T13:21:50.510Z,4.28
2022-12-28T13:24:31.524Z,3.75
2022-12-28T13:27:00.816Z,4.05
2022-12-28T13:29:37.872Z,4.60
2022-12-28T13:32:05.863Z,2.95
2022-12-28T13:34:35.282Z,4.13
2022-12-28T13:37:14.305Z,3.20
2022-12-28T13:39:42.767Z,3.75
2022-12-28T13:42:17.524Z,3.55
2022-12-28T13:44:48.520Z,3.70
2022-12-28T13:47:28.393Z,3.20
2022-12-28T13:50:02.792Z,2.80
2022-12-28T13:52:43.197Z,2.28
2022-12-28T13:55:25.872Z,2.63
2022-12-28T13:57:59.675Z,2.55
2022-12-28T14:00:28.264Z,2.38
2022-12-28T14:02:56.367Z,3.22
2022-12-28T14:05:27.813Z,3.15
2022-12-28T14:07:57.953Z,2.80
2022-12-28T14:10:26.229Z,2.50
2022-12-28T14:12:54.533Z,3.38
2022-12-28T14:15:24.040Z,3.38
2022-12-28T14:17:52.475Z,3.53
2022-12-28T14:20:20.401Z,2.75
2022-12-28T14:22:48.385Z,3.45
2022-12-28T14:25:18.708Z,3.05
2022-12-28T14:27:58.974Z,3.93
2022-12-28T14:30:33.669Z,2.83
2022-12-28T14:36:01.983Z,2.72
2022-12-28T14:38:34.021Z,1.75
2022-12-28T14:41:03.514Z,2.03
2022-12-28T14:43:34.105Z,2.15
2022-12-28T14:46:17.203Z,2.95
2022-12-28T14:48:45.477Z,2.30
2022-12-28T14:51:17.322Z,2.00
2022-12-28T14:53:45.783Z,1.83
2022-12-28T14:56:16.100Z,1.70
2022-12-28T14:58:55.478Z,1.73
2022-12-28T15:01:23.962Z,2.30
2022-12-28T15:03:58.908Z,2.20
2022-12-28T15:06:29.494Z,1.77
2022-12-28T15:08:59.756Z,2.22
2022-12-28T15:11:29.538Z,1.83
2022-12-28T15:13:58.094Z,1.75
2022-12-28T15:16:26.110Z,1.52
2022-12-28T15:18:54.096Z,1.80
2022-12-28T15:21:23.603Z,1.83
2022-12-28T15:23:53.055Z,1.90
2022-12-28T15:26:23.398Z,1.38
2022-12-28T15:28:51.758Z,1.50
2022-12-28T15:31:21.120Z,1.60
2022-12-28T15:33:49.381Z,1.10
2022-12-28T15:36:21.034Z,1.90
2022-12-28T15:38:49.687Z,1.45
2022-12-28T15:41:37.783Z,2.00
2022-12-28T15:44:05.844Z,1.33
2022-12-28T15:46:33.837Z,1.42
2022-12-28T15:49:06.458Z,2.30
2022-12-28T15:51:34.716Z,1.73
2022-12-28T15:54:02.605Z,1.80
2022-12-28T15:56:33.355Z,1.73
2022-12-28T15:59:03.892Z,1.20
2022-12-28T16:01:32.652Z,1.33
2022-12-28T16:04:02.222Z,1.20
2022-12-28T16:06:32.483Z,1.20
2022-12-28T16:09:01.882Z,1.52
2022-12-28T16:11:30.632Z,1.50
2022-12-28T16:14:11.642Z,1.23
2022-12-28T16:16:40.502Z,1.50
2022-12-28T16:19:09.875Z,1.33
2022-12-28T16:21:37.753Z,1.60
2022-12-28T16:24:05.792Z,1.63
2022-12-28T16:26:33.798Z,1.52
2022-12-28T16:29:03.280Z,1.42
2022-12-28T16:31:38.047Z,1.30
2022-12-28T16:34:17.570Z,1.40
2022-12-28T16:36:46.671Z,1.40
2022-12-28T16:39:16.998Z,1.13
2022-12-28T16:41:45.191Z,1.37
2022-12-28T16:44:20.109Z,1.88
2022-12-28T16:46:49.107Z,1.60
2022-12-28T16:49:17.602Z,1.10
2022-12-28T16:51:47.297Z,1.20
2022-12-28T16:54:20.947Z,1.48
2022-12-28T16:56:49.509Z,1.20
2022-12-28T16:59:24.496Z,1.13
2022-12-28T17:01:53.857Z,1.45
2022-12-28T17:04:22.417Z,1.52
2022-12-28T17:06:51.619Z,1.48
2022-12-28T17:09:20.161Z,1.80
2022-12-28T17:11:49.523Z,1.30
2022-12-28T17:14:35.767Z,1.50
2022-12-28T17:17:05.675Z,1.38
2022-12-28T17:19:33.631Z,1.35
2022-12-28T17:22:01.571Z,1.80
2022-12-28T17:24:29.450Z,1.50
2022-12-28T17:27:01.676Z,1.25
2022-12-28T17:29:33.216Z,1.48
2022-12-28T17:32:01.153Z,1.40
2022-12-28T17:34:29.074Z,1.70
2022-12-28T17:36:56.918Z,1.40
2022-12-28T17:39:24.924Z,1.17
2022-12-28T17:41:52.802Z,1.10
2022-12-28T17:44:20.628Z,1.50
2022-12-28T17:46:48.523Z,1.33
2022-12-28T17:49:16.530Z,1.50
2022-12-28T17:51:44.487Z,1.45
2022-12-28T17:54:13.637Z,1.17
2022-12-28T17:56:43.006Z,1.40
2022-12-28T17:59:15.740Z,1.20
2022-12-28T18:01:43.870Z,1.33
2022-12-28T18:04:12.213Z,1.27
2022-12-28T18:06:40.285Z,1.13
2022-12-28T18:09:08.236Z,1.20
2022-12-28T18:11:36.108Z,1.45
2022-12-28T18:14:04.009Z,1.73
2022-12-28T18:16:31.900Z,1.40
2022-12-28T18:18:59.942Z,1.83
2022-12-28T18:21:28.343Z,1.30
2022-12-28T18:23:56.374Z,1.48
2022-12-28T18:26:26.275Z,1.20
2022-12-28T18:28:55.830Z,1.50
2022-12-28T18:31:24.915Z,1.50
2022-12-28T18:33:53.159Z,1.60
2022-12-28T18:36:21.090Z,1.65
2022-12-28T18:38:49.615Z,1.25
2022-12-28T18:41:22.946Z,1.50
2022-12-28T18:43:52.067Z,1.83
2022-12-28T18:46:21.018Z,1.38
2022-12-28T18:48:48.912Z,1.70
2022-12-28T18:51:18.340Z,1.48
2022-12-28T18:53:46.783Z,2.03
2022-12-28T18:56:20.595Z,1.50
2022-12-28T18:58:53.773Z,1.55
2022-12-28T19:04:16.228Z,1.52
2022-12-28T19:06:44.612Z,1.70
2022-12-28T19:09:13.222Z,1.75
2022-12-28T19:11:41.648Z,1.40
2022-12-28T19:14:12.295Z,1.48
2022-12-28T19:16:40.295Z,1.55
2022-12-28T19:19:08.270Z,1.60
2022-12-28T19:21:40.709Z,2.03
2022-12-28T19:24:17.413Z,1.50
2022-12-28T19:26:46.372Z,1.27
2022-12-28T19:29:15.546Z,1.70
2022-12-28T19:31:43.885Z,1.60
2022-12-28T19:34:11.983Z,1.45
2022-12-28T19:36:39.889Z,1.90
2022-12-28T19:39:07.767Z,1.63
2022-12-28T19:41:35.809Z,1.30
2022-12-28T19:44:03.896Z,1.38
2022-12-28T19:46:32.407Z,1.30
2022-12-28T19:49:02.400Z,1.25
2022-12-28T19:51:32.335Z,1.80
2022-12-28T19:54:01.278Z,1.50
2022-12-28T19:56:29.617Z,1.10
2022-12-28T19:59:04.918Z,1.52
2022-12-28T20:01:35.542Z,1.45
2022-12-28T20:04:10.385Z,1.15
2022-12-28T20:06:43.195Z,1.50
2022-12-28T20:09:13.337Z,1.48
2022-12-28T20:11:41.529Z,1.70
2022-12-28T20:14:12.859Z,1.40
2022-12-28T20:16:42.335Z,1.13
2022-12-28T20:19:11.686Z,1.88
2022-12-28T20:21:41.490Z,1.70
2022-12-28T20:24:11.089Z,1.17
2022-12-28T20:26:39.048Z,1.50
2022-12-28T20:29:07.011Z,1.52
2022-12-28T20:31:34.946Z,1.58
2022-12-28T20:34:02.907Z,1.58
2022-12-28T20:36:33.701Z,2.03
2022-12-28T20:39:01.883Z,1.17
2022-12-28T20:41:51.295Z,1.20
2022-12-28T20:44:25.837Z,1.05
2022-12-28T20:46:54.830Z,1.48
2022-12-28T20:49:24.250Z,1.60
2022-12-28T20:51:52.357Z,1.30
2022-12-28T20:54:20.851Z,1.30
2022-12-28T20:56:54.358Z,1.63
2022-12-28T20:59:24.608Z,1.42
2022-12-28T21:01:53.159Z,1.40
2022-12-28T21:04:23.788Z,1.13
2022-12-28T21:06:52.632Z,1.25
2022-12-28T21:09:20.690Z,1.63
2022-12-28T21:11:48.502Z,1.75
2022-12-28T21:14:16.332Z,1.55
2022-12-28T21:16:44.214Z,1.92
2022-12-28T21:19:12.185Z,1.67
2022-12-28T21:21:39.992Z,1.33
2022-12-28T21:24:07.990Z,1.20
2022-12-28T21:26:35.849Z,1.90
2022-12-28T21:29:03.669Z,1.60
2022-12-28T21:31:31.631Z,1.70
2022-12-28T21:33:59.466Z,1.85
2022-12-28T21:36:27.373Z,1.80
2022-12-28T21:38:55.237Z,1.98
2022-12-28T21:41:42.031Z,1.30
2022-12-28T21:44:11.992Z,1.50
2022-12-28T21:46:40.142Z,1.67
2022-12-28T21:49:08.532Z,1.55
2022-12-28T21:51:38.264Z,2.08
2022-12-28T21:54:09.430Z,1.60
2022-12-28T21:56:37.684Z,1.70
2022-12-28T21:59:06.460Z,1.90
2022-12-28T22:01:53.436Z,1.92
2022-12-28T22:04:41.340Z,1.40
2022-12-28T22:07:11.517Z,1.70
2022-12-28T22:09:58.226Z,1.85
2022-12-28T22:12:36.775Z,1.48
2022-12-28T22:15:33.206Z,1.30
2022-12-28T22:18:06.844Z,1.60
2022-12-28T22:20:37.334Z,3.30
2022-12-28T22:23:06.953Z,1.80
2022-12-28T22:25:35.714Z,1.58
2022-12-28T22:28:04.312Z,1.60
2022-12-28T22:30:33.881Z,1.60
2022-12-28T22:33:01.948Z,1.90
2022-12-28T22:35:29.956Z,2.05
2022-12-28T22:37:57.832Z,1.60
2022-12-28T22:40:25.733Z,2.22
2022-12-28T22:42:53.671Z,1.40
2022-12-28T22:45:23.429Z,1.92
2022-12-28T22:47:55.140Z,2.28
2022-12-28T22:50:22.989Z,1.90
2022-12-28T22:52:50.939Z,1.85
2022-12-28T22:55:18.896Z,2.47
2022-12-28T22:57:47.041Z,2.67
2022-12-28T23:00:15.594Z,2.42
2022-12-28T23:02:44.298Z,2.08
2022-12-28T23:05:12.325Z,1.88
2022-12-28T23:07:40.225Z,2.22
2022-12-28T23:10:10.277Z,1.95
2022-12-28T23:12:38.711Z,2.70
2022-12-28T23:15:16.174Z,2.40
2022-12-28T23:17:44.364Z,2.13
2022-12-28T23:20:31.322Z,2.70
2022-12-28T23:23:17.664Z,2.63
2022-12-28T23:26:04.085Z,2.50
2022-12-28T23:28:35.804Z,2.17
2022-12-28T23:31:04.231Z,1.83
2022-12-28T23:33:32.175Z,2.28
2022-12-28T23:36:04.181Z,1.95
2022-12-28T23:38:33.138Z,2.10
2022-12-28T23:41:24.731Z,1.45
2022-12-28T23:43:52.593Z,1.92
2022-12-28T23:46:20.546Z,1.95
2022-12-28T23:48:48.493Z,2.78
2022-12-28T23:51:17.862Z,2.40
2022-12-28T23:53:45.840Z,2.75
2022-12-28T23:56:16.314Z,2.70
2022-12-28T23:58:44.286Z,3.28
